• Join FlightAware (Why Join?)
  • Login
  • US Flag 
06:54AM EST


 

Airport Tracker/Info


-or-


 

Live Flight TrackerFlight Track Log ✈ UAL395 ✈ 22-Jun-2013 ✈ KMCO - KIAD

Flight Track Log - Related Links

Times and Time Zones

All times are in EDT time to prevent confusion due to time zone crossing. See the UAL395 flight status page for this flight to view local times or setup timezone preferences in your user account.

Time Position Orientation Groundspeed Altitude Reporting Facility
EDT Latitude Longitude Course Direction KTS MPH feet Rate Location/Type
06:46PM 28.4167 -81.3000 90° East 161 185 600  Level Orlando TRACON
06:47PM 28.3500 -81.2500 147° Southeast 238 274 3,100 2,160 Climbing Orlando TRACON
06:48PM 28.3333 -81.1667 103° East 277 319 5,800 2,880 Climbing Orlando TRACON
06:49PM 28.2013 -80.8448 114° Southeast  Level FlightAware Approximate
06:50PM 28.1535 -80.7253 114° Southeast  Level FlightAware Approximate
06:50PM 28.3189 -81.0425 97° East 297 342 10,400  Level Miami Center
06:51PM 28.1000 -80.6239 90° East  Level FlightAware Approximate
06:51PM 28.3094 -80.9383 96° East 310 357 12,000  Level Miami Center
06:52PM 28.3206 -80.8422 82° East 333 383 14,400 2,220 Climbing Miami Center
06:53PM 28.3656 -80.7236 67° East 344 396 16,500 1,920 Climbing Miami Center
06:54PM 28.4078 -80.6233 64° Northeast 373 429 18,300 1,800 Climbing Miami Center
06:55PM 28.4567 -80.5094 64° Northeast 387 445 20,200 1,800 Climbing Miami Center
06:56PM 28.5100 -80.3789 65° Northeast 404 465 22,000 1,560 Climbing Miami Center
06:57PM 28.5611 -80.2553 65° Northeast 412 474 23,400 1,320 Climbing Miami Center
06:58PM 28.6606 -80.1850 32° Northeast 414 476 24,700 1,140 Climbing Miami Center
06:59PM 28.7806 -80.1411 18° North 419 482 25,700 1,080 Climbing Miami Center
07:00PM 28.9028 -80.0950 18° North 433 498 26,900 1,200 Climbing Miami Center
07:01PM 29.0269 -80.0464 19° North 455 524 28,100 1,020 Climbing Miami Center
07:02PM 29.1553 -79.9978 18° North 466 536 29,000 1,140 Climbing Miami Center
07:03PM 29.2836 -79.9469 19° North 477 549 30,400 1,320 Climbing Miami Center
07:04PM 29.4117 -79.9006 18° North 477 549 31,700 1,320 Climbing Miami Center
07:06PM 29.6383 -79.8078 20° North 488 562 34,300 1,200 Climbing Jacksonville Center
07:07PM 29.7603 -79.7586 19° North 468 539 35,300 960 Climbing Jacksonville Center
07:08PM 29.8867 -79.7136 17° North 468 539 36,300 840 Climbing Jacksonville Center
07:09PM 30.0044 -79.6667 19° North 458 527 37,000 300 Climbing Jacksonville Center
07:10PM 30.1264 -79.6169 19° North 458 527 37,000  Level Jacksonville Center
07:11PM 30.2544 -79.5694 18° North 463 533 37,000  Level Jacksonville Center
07:12PM 30.3703 -79.5219 19° North 458 527 37,000  Level Jacksonville Center
07:13PM 30.4919 -79.4744 19° North 458 527 37,000  Level Jacksonville Center
07:14PM 30.6158 -79.4192 21° North 463 533 37,000  Level Jacksonville Center
07:15PM 30.7442 -79.3831 14° North 463 533 37,000  Level Jacksonville Center
07:16PM 30.8658 -79.3253 22° Northeast 464 534 37,000  Level Jacksonville Center
07:17PM 30.9919 -79.2769 18° North 464 534 37,000  Level Jacksonville Center
07:18PM 31.1136 -79.2261 20° North 464 534 37,000  Level Jacksonville Center
07:19PM 31.2394 -79.1750 19° North 464 534 37,000  Level Jacksonville Center
07:20PM 31.3611 -79.1267 19° North 464 534 37,000  Level Jacksonville Center
07:21PM 31.4847 -79.0753 20° North 458 527 37,000  Level Jacksonville Center
07:22PM 31.6067 -79.0289 18° North 463 533 37,000 -60 Level Jacksonville Center
07:23PM 31.7322 -78.9747 20° North 463 533 36,900 -60 Descending Jacksonville Center
07:24PM 31.8539 -78.9256 19° North 463 533 36,900  Level Jacksonville Center
07:25PM 31.9817 -78.8758 18° North 463 533 37,000  Climbing Jacksonville Center
07:26PM 32.1014 -78.8267 19° North 464 534 37,000  Level Jacksonville Center
07:27PM 32.2289 -78.7742 19° North 464 534 37,000  Level Jacksonville Center
07:28PM 32.3525 -78.7219 20° North 464 534 37,000  Level Jacksonville Center
07:29PM 32.4761 -78.6694 20° North 464 534 37,000 -60 Level Jacksonville Center
07:30PM 32.6017 -78.6169 19° North 464 534 36,900 -60 Descending Jacksonville Center
07:31PM 32.7231 -78.5667 19° North 464 534 36,900  Level Jacksonville Center
07:32PM 32.8586 -78.5083 20° North 464 534 36,900  Level Jacksonville Center
07:33PM 32.9822 -78.4575 19° North 459 528 37,000  Climbing Jacksonville Center
07:34PM 33.1097 -78.4067 18° North 464 534 37,000 -60 Level Jacksonville Center
07:35PM 33.3294 -78.3128 20° North 469 540 36,900 -60 Descending Washington Center
07:36PM 33.4536 -78.2597 20° North 469 540 36,900  Level Washington Center
07:37PM 33.5778 -78.2089 19° North 469 540 37,000  Climbing Washington Center
07:38PM 33.7022 -78.1553 20° North 469 540 36,900 -60 Descending Washington Center
07:39PM 33.8264 -78.1042 19° North 469 540 36,900  Level Washington Center
07:40PM 33.9503 -78.0553 18° North 468 539 36,900  Level Washington Center
07:41PM 34.0947 -78.0294 North 468 539 37,000  Climbing Washington Center
07:42PM 34.2286 -78.0208 North 468 539 37,000  Level Washington Center
07:43PM 34.3642 -78.0172 North 476 548 37,000 -60 Level Washington Center
07:44PM 34.4958 -78.0086 North 476 548 36,900  Descending Washington Center
07:45PM 34.6294 -78.0000 North 476 548 37,000  Climbing Washington Center
07:46PM 34.7633 -77.9939 North 476 548 37,000  Level Washington Center
07:47PM 34.8928 -77.9825 North 476 548 37,000  Level Washington Center
07:48PM 35.0264 -77.9736 North 476 548 37,000  Level Washington Center
07:49PM 35.1603 -77.9675 North 476 548 37,000  Level Washington Center
07:50PM 35.2939 -77.9586 North 476 548 37,000  Level Washington Center
07:51PM 35.4256 -77.9497 North 476 548 37,000  Level Washington Center
07:52PM 35.5614 -77.9411 North 476 548 37,000  Level Washington Center
07:53PM 35.6950 -77.9347 North 476 548 37,000  Level Washington Center
07:54PM 35.8267 -77.9258 North 476 548 37,000 -900 Level Washington Center
07:55PM 35.9581 -77.9297 359° North 476 548 35,300 -2,460 Descending Washington Center
07:56PM 36.0669 -78.0150 328° Northwest 450 518 32,200 -3,000 Descending Washington Center
07:57PM 36.1289 -78.1456 300° West 445 512 29,300 -2,460 Descending Washington Center
07:58PM 36.1947 -78.2792 301° West 450 518 27,400 -1,200 Descending Washington Center
07:59PM 36.3058 -78.3472 334° Northwest 442 509 27,000 -240 Descending Washington Center
08:00PM 36.4342 -78.3078 14° North 416 479 27,000  Level Washington Center
08:01PM 36.5561 -78.2578 18° North 427 491 27,000  Level Washington Center
08:02PM 36.6908 -78.2106 16° North 443 510 27,000  Level Washington Center
08:03PM 36.8006 -78.1494 24° Northeast 455 524 27,000  Level Washington Center
08:04PM 36.9269 -78.0967 18° North 466 536 27,000  Level Washington Center
08:05PM 37.0447 -78.0431 20° North 466 536 27,000 -2,580 Level Washington Center
08:06PM 37.1689 -77.9897 19° North 466 536 22,000 -1,260 Descending Washington Center
08:07PM 37.2889 -77.9361 20° North 466 536 24,500 480 Climbing Washington Center
08:08PM 37.4125 -77.9111 North 455 524 23,000 -1,320 Descending Washington Center
08:09PM 37.5339 -77.8911 North 450 518 22,000 -540 Descending Washington Center
08:10PM 37.6475 -77.8394 20° North 445 512 22,000 -840 Level Washington Center
08:11PM 37.7531 -77.7639 30° Northeast 430 495 20,300 -2,100 Descending Washington Center
08:12PM 37.8547 -77.6881 30° Northeast 425 489 17,800 -2,460 Descending Washington Center
08:13PM 37.9519 -77.6142 31° Northeast 415 478 15,400 -2,640 Descending Washington Center
08:14PM 38.0572 -77.5433 28° Northeast 409 471 12,600 -2,640 Descending Washington Center
08:15PM 38.1397 -77.4794 31° Northeast 372 428 10,200 -1,320 Descending Washington Center
08:16PM 38.2156 -77.4283 28° Northeast 330 380 10,000 -840 Descending Washington Center
08:17PM 38.2892 -77.3853 25° Northeast 298 343 8,600 -1,140 Descending Washington Center
08:18PM 38.3667 -77.3581 15° North 291 335 7,700 -1,020 Descending Washington Center
08:19PM 38.4500 -77.3625 358° North 286 329 6,600 -1,020 Descending Washington Center
08:20PM 38.5272 -77.3644 359° North 286 329 5,700 -900 Descending Washington Center
08:21PM 38.6042 -77.3689 357° North 286 329 4,900 -660 Descending Washington Center
08:22PM 38.6814 -77.3628 North 279 321 4,500 -420 Descending Washington Center
08:23PM 38.7586 -77.3594 North 279 321 4,100 -240 Descending Washington Center
08:25PM 38.8667 -77.3500 North 278 320 4,000 -180 Descending Potomac TRACON
08:26PM 38.9500 -77.3500 360° North 279 321 3,800 -480 Descending Potomac TRACON
08:27PM 39.0333 -77.3500 360° North 252 290 3,000 -660 Descending Potomac TRACON
08:28PM 39.0833 -77.3667 345° North 221 254 2,500 -600 Descending Potomac TRACON